sensor_id;sensor_type;location;lat;lon;timestamp;P1;durP1;ratioP1;P2;durP2;ratioP2
70757;SDS011;59316;52.964;7.102;2023-06-24T00:01:31;15.38;;;9.77;;
70757;SDS011;59316;52.964;7.102;2023-06-24T00:06:52;14.27;;;9.00;;
70757;SDS011;59316;52.964;7.102;2023-06-24T00:12:14;16.92;;;9.20;;
70757;SDS011;59316;52.964;7.102;2023-06-24T00:17:35;14.55;;;8.68;;
70757;SDS011;59316;52.964;7.102;2023-06-24T00:22:57;15.57;;;9.27;;
70757;SDS011;59316;52.964;7.102;2023-06-24T00:28:18;17.08;;;10.05;;
70757;SDS011;59316;52.964;7.102;2023-06-24T00:33:40;19.02;;;10.35;;
70757;SDS011;59316;52.964;7.102;2023-06-24T00:39:02;17.00;;;10.25;;
70757;SDS011;59316;52.964;7.102;2023-06-24T00:44:24;19.75;;;11.15;;
70757;SDS011;59316;52.964;7.102;2023-06-24T00:49:45;14.68;;;8.75;;
70757;SDS011;59316;52.964;7.102;2023-06-24T00:55:07;16.33;;;9.40;;
70757;SDS011;59316;52.964;7.102;2023-06-24T01:00:29;14.85;;;8.75;;
70757;SDS011;59316;52.964;7.102;2023-06-24T01:05:52;12.60;;;8.48;;
70757;SDS011;59316;52.964;7.102;2023-06-24T01:11:14;15.45;;;9.68;;
70757;SDS011;59316;52.964;7.102;2023-06-24T01:33:57;25.05;;;11.35;;
70757;SDS011;59316;52.964;7.102;2023-06-24T01:39:28;20.55;;;11.25;;
70757;SDS011;59316;52.964;7.102;2023-06-24T01:44:54;20.27;;;10.90;;
70757;SDS011;59316;52.964;7.102;2023-06-24T01:50:19;15.97;;;9.37;;
70757;SDS011;59316;52.964;7.102;2023-06-24T01:55:43;15.82;;;9.15;;
70757;SDS011;59316;52.964;7.102;2023-06-24T02:01:08;12.30;;;7.55;;
70757;SDS011;59316;52.964;7.102;2023-06-24T02:06:30;14.75;;;7.95;;
70757;SDS011;59316;52.964;7.102;2023-06-24T02:11:52;15.95;;;9.63;;
70757;SDS011;59316;52.964;7.102;2023-06-24T02:17:15;15.85;;;8.90;;
70757;SDS011;59316;52.964;7.102;2023-06-24T02:22:38;16.98;;;8.35;;
70757;SDS011;59316;52.964;7.102;2023-06-24T02:28:00;14.75;;;8.45;;
70757;SDS011;59316;52.964;7.102;2023-06-24T02:33:22;15.27;;;8.18;;
70757;SDS011;59316;52.964;7.102;2023-06-24T02:38:43;15.15;;;7.90;;
70757;SDS011;59316;52.964;7.102;2023-06-24T02:44:05;13.77;;;7.82;;
70757;SDS011;59316;52.964;7.102;2023-06-24T02:49:27;11.95;;;7.18;;
70757;SDS011;59316;52.964;7.102;2023-06-24T02:54:49;15.35;;;8.00;;
70757;SDS011;59316;52.964;7.102;2023-06-24T03:00:35;13.27;;;7.93;;
70757;SDS011;59316;52.964;7.102;2023-06-24T03:06:18;17.17;;;9.45;;
70757;SDS011;59316;52.964;7.102;2023-06-24T03:11:41;16.08;;;9.73;;
70757;SDS011;59316;52.964;7.102;2023-06-24T03:17:07;17.95;;;10.20;;
70757;SDS011;59316;52.964;7.102;2023-06-24T03:22:28;17.88;;;10.38;;
70757;SDS011;59316;52.964;7.102;2023-06-24T03:27:50;19.10;;;9.85;;
70757;SDS011;59316;52.964;7.102;2023-06-24T03:33:12;17.10;;;9.48;;
70757;SDS011;59316;52.964;7.102;2023-06-24T03:38:33;20.60;;;11.02;;
70757;SDS011;59316;52.964;7.102;2023-06-24T03:43:55;20.05;;;11.25;;
70757;SDS011;59316;52.964;7.102;2023-06-24T03:49:17;15.88;;;9.82;;
70757;SDS011;59316;52.964;7.102;2023-06-24T03:54:39;21.13;;;10.50;;
70757;SDS011;59316;52.964;7.102;2023-06-24T04:00:00;17.40;;;9.93;;
70757;SDS011;59316;52.964;7.102;2023-06-24T04:05:35;23.52;;;10.98;;
70757;SDS011;59316;52.964;7.102;2023-06-24T04:10:57;22.08;;;11.48;;
70757;SDS011;59316;52.964;7.102;2023-06-24T04:16:19;20.20;;;10.40;;
70757;SDS011;59316;52.964;7.102;2023-06-24T04:21:41;24.63;;;11.20;;
70757;SDS011;59316;52.964;7.102;2023-06-24T04:27:02;20.05;;;10.80;;
70757;SDS011;59316;52.964;7.102;2023-06-24T04:32:24;27.85;;;12.95;;
70757;SDS011;59316;52.964;7.102;2023-06-24T04:37:46;33.20;;;12.65;;
70757;SDS011;59316;52.964;7.102;2023-06-24T04:43:07;26.65;;;12.65;;
70757;SDS011;59316;52.964;7.102;2023-06-24T04:48:29;28.45;;;14.63;;
70757;SDS011;59316;52.964;7.102;2023-06-24T04:53:50;33.15;;;15.73;;
70757;SDS011;59316;52.964;7.102;2023-06-24T04:59:12;33.75;;;14.10;;
70757;SDS011;59316;52.964;7.102;2023-06-24T05:04:33;28.60;;;13.43;;
70757;SDS011;59316;52.964;7.102;2023-06-24T05:09:55;20.20;;;10.50;;
70757;SDS011;59316;52.964;7.102;2023-06-24T05:15:16;20.98;;;10.90;;
70757;SDS011;59316;52.964;7.102;2023-06-24T05:20:38;15.20;;;8.85;;
70757;SDS011;59316;52.964;7.102;2023-06-24T05:26:00;16.23;;;9.25;;
70757;SDS011;59316;52.964;7.102;2023-06-24T05:31:21;13.13;;;8.95;;
70757;SDS011;59316;52.964;7.102;2023-06-24T05:36:43;12.57;;;8.10;;
70757;SDS011;59316;52.964;7.102;2023-06-24T05:42:04;9.95;;;7.72;;
70757;SDS011;59316;52.964;7.102;2023-06-24T05:47:26;9.68;;;7.53;;
70757;SDS011;59316;52.964;7.102;2023-06-24T05:52:47;11.55;;;7.43;;
70757;SDS011;59316;52.964;7.102;2023-06-24T05:58:09;15.05;;;7.57;;
70757;SDS011;59316;52.964;7.102;2023-06-24T06:03:31;8.57;;;7.20;;
70757;SDS011;59316;52.964;7.102;2023-06-24T06:08:52;11.65;;;7.55;;
70757;SDS011;59316;52.964;7.102;2023-06-24T06:14:14;9.35;;;7.13;;
70757;SDS011;59316;52.964;7.102;2023-06-24T06:19:35;10.90;;;7.43;;
70757;SDS011;59316;52.964;7.102;2023-06-24T06:24:56;10.32;;;6.60;;
70757;SDS011;59316;52.964;7.102;2023-06-24T06:30:18;10.40;;;6.75;;
70757;SDS011;59316;52.964;7.102;2023-06-24T06:35:39;8.73;;;6.97;;
70757;SDS011;59316;52.964;7.102;2023-06-24T06:41:01;9.95;;;6.40;;
70757;SDS011;59316;52.964;7.102;2023-06-24T06:46:22;9.32;;;6.78;;
70757;SDS011;59316;52.964;7.102;2023-06-24T06:51:43;8.13;;;6.35;;
70757;SDS011;59316;52.964;7.102;2023-06-24T06:57:05;11.10;;;6.05;;
70757;SDS011;59316;52.964;7.102;2023-06-24T07:02:26;10.40;;;6.72;;
70757;SDS011;59316;52.964;7.102;2023-06-24T07:07:47;11.45;;;6.25;;
70757;SDS011;59316;52.964;7.102;2023-06-24T07:13:08;8.30;;;5.90;;
70757;SDS011;59316;52.964;7.102;2023-06-24T07:18:30;6.57;;;5.32;;
70757;SDS011;59316;52.964;7.102;2023-06-24T07:23:51;7.35;;;5.32;;
70757;SDS011;59316;52.964;7.102;2023-06-24T07:29:12;11.77;;;6.18;;
70757;SDS011;59316;52.964;7.102;2023-06-24T07:34:34;11.55;;;5.90;;
70757;SDS011;59316;52.964;7.102;2023-06-24T07:39:55;7.50;;;5.85;;
70757;SDS011;59316;52.964;7.102;2023-06-24T07:45:16;7.57;;;5.88;;
70757;SDS011;59316;52.964;7.102;2023-06-24T07:50:37;9.05;;;6.30;;
70757;SDS011;59316;52.964;7.102;2023-06-24T07:55:59;10.88;;;5.82;;
70757;SDS011;59316;52.964;7.102;2023-06-24T08:01:20;6.68;;;5.20;;
70757;SDS011;59316;52.964;7.102;2023-06-24T08:06:40;5.65;;;4.88;;
70757;SDS011;59316;52.964;7.102;2023-06-24T08:12:01;8.43;;;5.13;;
70757;SDS011;59316;52.964;7.102;2023-06-24T08:17:23;7.03;;;5.27;;
70757;SDS011;59316;52.964;7.102;2023-06-24T08:22:44;7.95;;;6.00;;
70757;SDS011;59316;52.964;7.102;2023-06-24T08:28:05;6.70;;;5.82;;
70757;SDS011;59316;52.964;7.102;2023-06-24T08:33:25;9.35;;;5.85;;
70757;SDS011;59316;52.964;7.102;2023-06-24T08:38:46;10.63;;;6.10;;
70757;SDS011;59316;52.964;7.102;2023-06-24T08:44:07;6.78;;;5.60;;
70757;SDS011;59316;52.964;7.102;2023-06-24T08:49:30;9.68;;;5.32;;
70757;SDS011;59316;52.964;7.102;2023-06-24T09:00:13;9.13;;;6.75;;
70757;SDS011;59316;52.964;7.102;2023-06-24T09:05:34;9.00;;;5.35;;
70757;SDS011;59316;52.964;7.102;2023-06-24T09:10:56;6.23;;;4.33;;
70757;SDS011;59316;52.964;7.102;2023-06-24T09:16:17;8.02;;;5.32;;
70757;SDS011;59316;52.964;7.102;2023-06-24T09:21:38;6.63;;;5.13;;
70757;SDS011;59316;52.964;7.102;2023-06-24T09:26:58;6.25;;;5.03;;
70757;SDS011;59316;52.964;7.102;2023-06-24T09:32:20;14.60;;;4.97;;
70757;SDS011;59316;52.964;7.102;2023-06-24T09:37:41;5.30;;;3.70;;
70757;SDS011;59316;52.964;7.102;2023-06-24T09:43:02;16.30;;;4.25;;
70757;SDS011;59316;52.964;7.102;2023-06-24T09:48:23;5.28;;;4.03;;
70757;SDS011;59316;52.964;7.102;2023-06-24T09:53:44;5.35;;;4.10;;
70757;SDS011;59316;52.964;7.102;2023-06-24T09:59:05;9.70;;;4.20;;
70757;SDS011;59316;52.964;7.102;2023-06-24T10:04:27;6.88;;;4.38;;
70757;SDS011;59316;52.964;7.102;2023-06-24T10:09:48;8.27;;;5.03;;
70757;SDS011;59316;52.964;7.102;2023-06-24T10:15:09;6.10;;;4.28;;
70757;SDS011;59316;52.964;7.102;2023-06-24T10:20:31;5.68;;;4.25;;
70757;SDS011;59316;52.964;7.102;2023-06-24T10:25:57;5.38;;;4.70;;
70757;SDS011;59316;52.964;7.102;2023-06-24T10:31:18;5.15;;;3.47;;
70757;SDS011;59316;52.964;7.102;2023-06-24T10:36:40;8.77;;;5.22;;
70757;SDS011;59316;52.964;7.102;2023-06-24T10:47:48;4.72;;;4.15;;
70757;SDS011;59316;52.964;7.102;2023-06-24T10:53:10;5.95;;;4.57;;
70757;SDS011;59316;52.964;7.102;2023-06-24T10:58:33;7.93;;;5.05;;
70757;SDS011;59316;52.964;7.102;2023-06-24T11:03:54;5.97;;;4.20;;
70757;SDS011;59316;52.964;7.102;2023-06-24T11:09:15;5.10;;;3.47;;
70757;SDS011;59316;52.964;7.102;2023-06-24T11:14:36;5.97;;;3.83;;
70757;SDS011;59316;52.964;7.102;2023-06-24T11:20:00;4.25;;;3.70;;
70757;SDS011;59316;52.964;7.102;2023-06-24T11:25:22;4.43;;;3.28;;
70757;SDS011;59316;52.964;7.102;2023-06-24T11:30:43;7.60;;;4.67;;
70757;SDS011;59316;52.964;7.102;2023-06-24T11:36:08;5.20;;;4.13;;
70757;SDS011;59316;52.964;7.102;2023-06-24T11:41:32;5.50;;;4.38;;
70757;SDS011;59316;52.964;7.102;2023-06-24T11:46:53;4.90;;;3.67;;
70757;SDS011;59316;52.964;7.102;2023-06-24T12:03:24;7.22;;;3.60;;
70757;SDS011;59316;52.964;7.102;2023-06-24T12:08:45;4.03;;;3.10;;
70757;SDS011;59316;52.964;7.102;2023-06-24T12:14:11;5.45;;;3.70;;
70757;SDS011;59316;52.964;7.102;2023-06-24T12:19:32;4.22;;;3.10;;
70757;SDS011;59316;52.964;7.102;2023-06-24T12:24:53;6.18;;;3.28;;
70757;SDS011;59316;52.964;7.102;2023-06-24T12:30:14;3.60;;;2.70;;
70757;SDS011;59316;52.964;7.102;2023-06-24T12:35:34;3.03;;;2.70;;
70757;SDS011;59316;52.964;7.102;2023-06-24T12:40:56;4.80;;;3.30;;
70757;SDS011;59316;52.964;7.102;2023-06-24T12:46:18;4.97;;;3.00;;
70757;SDS011;59316;52.964;7.102;2023-06-24T12:51:39;2.83;;;2.60;;
70757;SDS011;59316;52.964;7.102;2023-06-24T12:57:00;3.25;;;2.95;;
70757;SDS011;59316;52.964;7.102;2023-06-24T13:02:33;3.17;;;2.83;;
70757;SDS011;59316;52.964;7.102;2023-06-24T13:13:15;3.15;;;2.55;;
70757;SDS011;59316;52.964;7.102;2023-06-24T13:18:36;3.58;;;2.97;;
70757;SDS011;59316;52.964;7.102;2023-06-24T13:23:57;4.87;;;3.37;;
70757;SDS011;59316;52.964;7.102;2023-06-24T13:29:18;5.60;;;3.10;;
70757;SDS011;59316;52.964;7.102;2023-06-24T13:34:39;3.43;;;2.90;;
70757;SDS011;59316;52.964;7.102;2023-06-24T13:40:00;5.43;;;3.58;;
70757;SDS011;59316;52.964;7.102;2023-06-24T13:45:22;6.28;;;2.90;;
70757;SDS011;59316;52.964;7.102;2023-06-24T13:50:43;4.25;;;2.90;;
70757;SDS011;59316;52.964;7.102;2023-06-24T13:56:04;3.92;;;3.40;;
70757;SDS011;59316;52.964;7.102;2023-06-24T14:01:25;3.38;;;2.90;;
70757;SDS011;59316;52.964;7.102;2023-06-24T14:06:46;4.60;;;3.20;;
70757;SDS011;59316;52.964;7.102;2023-06-24T14:12:07;3.30;;;2.90;;
70757;SDS011;59316;52.964;7.102;2023-06-24T14:17:28;3.90;;;3.50;;
70757;SDS011;59316;52.964;7.102;2023-06-24T14:22:49;5.82;;;2.90;;
70757;SDS011;59316;52.964;7.102;2023-06-24T14:28:11;4.80;;;3.20;;
70757;SDS011;59316;52.964;7.102;2023-06-24T14:33:32;5.07;;;2.90;;
70757;SDS011;59316;52.964;7.102;2023-06-24T14:38:53;4.35;;;3.53;;
70757;SDS011;59316;52.964;7.102;2023-06-24T14:44:14;4.18;;;3.38;;
70757;SDS011;59316;52.964;7.102;2023-06-24T14:49:35;4.18;;;3.25;;
70757;SDS011;59316;52.964;7.102;2023-06-24T14:54:56;7.88;;;4.22;;
70757;SDS011;59316;52.964;7.102;2023-06-24T15:00:17;3.80;;;3.22;;
70757;SDS011;59316;52.964;7.102;2023-06-24T15:05:38;5.07;;;3.15;;
70757;SDS011;59316;52.964;7.102;2023-06-24T15:10:59;7.20;;;4.80;;
70757;SDS011;59316;52.964;7.102;2023-06-24T15:16:20;11.75;;;6.60;;
70757;SDS011;59316;52.964;7.102;2023-06-24T15:21:41;11.68;;;6.90;;
70757;SDS011;59316;52.964;7.102;2023-06-24T15:27:02;8.77;;;6.22;;
70757;SDS011;59316;52.964;7.102;2023-06-24T15:32:23;10.20;;;6.60;;
70757;SDS011;59316;52.964;7.102;2023-06-24T15:37:51;12.02;;;7.00;;
70757;SDS011;59316;52.964;7.102;2023-06-24T15:43:12;9.18;;;6.35;;
70757;SDS011;59316;52.964;7.102;2023-06-24T15:48:33;8.35;;;5.65;;
70757;SDS011;59316;52.964;7.102;2023-06-24T15:53:54;9.35;;;5.80;;
70757;SDS011;59316;52.964;7.102;2023-06-24T15:59:15;9.20;;;6.07;;
70757;SDS011;59316;52.964;7.102;2023-06-24T16:04:35;8.40;;;5.93;;
70757;SDS011;59316;52.964;7.102;2023-06-24T16:09:56;7.72;;;6.18;;
70757;SDS011;59316;52.964;7.102;2023-06-24T16:15:17;10.75;;;5.68;;
70757;SDS011;59316;52.964;7.102;2023-06-24T16:20:38;8.85;;;5.13;;
70757;SDS011;59316;52.964;7.102;2023-06-24T16:25:59;12.30;;;5.70;;
70757;SDS011;59316;52.964;7.102;2023-06-24T16:31:20;9.02;;;5.05;;
70757;SDS011;59316;52.964;7.102;2023-06-24T16:36:41;7.50;;;4.80;;
70757;SDS011;59316;52.964;7.102;2023-06-24T16:42:02;10.93;;;6.57;;
70757;SDS011;59316;52.964;7.102;2023-06-24T16:47:23;8.07;;;5.40;;
70757;SDS011;59316;52.964;7.102;2023-06-24T16:52:44;9.45;;;5.03;;
70757;SDS011;59316;52.964;7.102;2023-06-24T16:58:05;6.45;;;4.85;;
70757;SDS011;59316;52.964;7.102;2023-06-24T17:03:26;6.22;;;4.05;;
70757;SDS011;59316;52.964;7.102;2023-06-24T17:08:47;7.35;;;3.30;;
70757;SDS011;59316;52.964;7.102;2023-06-24T17:14:08;5.55;;;3.40;;
70757;SDS011;59316;52.964;7.102;2023-06-24T17:19:29;6.90;;;3.55;;
70757;SDS011;59316;52.964;7.102;2023-06-24T17:24:50;4.97;;;3.60;;
70757;SDS011;59316;52.964;7.102;2023-06-24T17:30:11;9.20;;;3.80;;
70757;SDS011;59316;52.964;7.102;2023-06-24T17:35:32;6.45;;;3.47;;
70757;SDS011;59316;52.964;7.102;2023-06-24T17:40:53;4.72;;;3.63;;
70757;SDS011;59316;52.964;7.102;2023-06-24T17:46:14;5.68;;;3.58;;
70757;SDS011;59316;52.964;7.102;2023-06-24T17:51:35;5.28;;;3.55;;
70757;SDS011;59316;52.964;7.102;2023-06-24T17:56:55;4.57;;;3.47;;
70757;SDS011;59316;52.964;7.102;2023-06-24T18:02:16;6.82;;;3.50;;
70757;SDS011;59316;52.964;7.102;2023-06-24T18:07:37;5.28;;;3.85;;
70757;SDS011;59316;52.964;7.102;2023-06-24T18:12:58;8.90;;;3.95;;
70757;SDS011;59316;52.964;7.102;2023-06-24T18:18:19;4.15;;;3.13;;
70757;SDS011;59316;52.964;7.102;2023-06-24T18:23:40;5.68;;;3.58;;
70757;SDS011;59316;52.964;7.102;2023-06-24T18:29:00;5.05;;;3.60;;
70757;SDS011;59316;52.964;7.102;2023-06-24T18:34:23;5.35;;;3.90;;
70757;SDS011;59316;52.964;7.102;2023-06-24T18:39:44;4.85;;;3.72;;
70757;SDS011;59316;52.964;7.102;2023-06-24T18:45:05;5.68;;;3.78;;
70757;SDS011;59316;52.964;7.102;2023-06-24T18:50:26;8.00;;;4.32;;
70757;SDS011;59316;52.964;7.102;2023-06-24T18:55:47;8.82;;;4.22;;
70757;SDS011;59316;52.964;7.102;2023-06-24T19:01:08;6.63;;;4.40;;
70757;SDS011;59316;52.964;7.102;2023-06-24T19:06:29;6.38;;;4.30;;
70757;SDS011;59316;52.964;7.102;2023-06-24T19:11:50;5.50;;;4.53;;
70757;SDS011;59316;52.964;7.102;2023-06-24T19:17:11;6.55;;;4.32;;
70757;SDS011;59316;52.964;7.102;2023-06-24T19:22:32;6.35;;;4.30;;
70757;SDS011;59316;52.964;7.102;2023-06-24T19:27:53;6.85;;;4.43;;
70757;SDS011;59316;52.964;7.102;2023-06-24T19:33:14;5.10;;;4.10;;
70757;SDS011;59316;52.964;7.102;2023-06-24T19:38:35;6.13;;;4.13;;
70757;SDS011;59316;52.964;7.102;2023-06-24T19:44:05;7.72;;;4.75;;
70757;SDS011;59316;52.964;7.102;2023-06-24T19:49:27;7.50;;;4.13;;
70757;SDS011;59316;52.964;7.102;2023-06-24T19:54:48;6.35;;;4.40;;
70757;SDS011;59316;52.964;7.102;2023-06-24T20:00:09;9.30;;;5.63;;
70757;SDS011;59316;52.964;7.102;2023-06-24T20:05:34;10.25;;;5.63;;
70757;SDS011;59316;52.964;7.102;2023-06-24T20:10:55;7.55;;;5.20;;
70757;SDS011;59316;52.964;7.102;2023-06-24T20:16:16;7.28;;;4.90;;
70757;SDS011;59316;52.964;7.102;2023-06-24T20:21:37;7.15;;;4.93;;
70757;SDS011;59316;52.964;7.102;2023-06-24T20:26:59;7.85;;;4.75;;
70757;SDS011;59316;52.964;7.102;2023-06-24T20:32:20;7.20;;;4.80;;
70757;SDS011;59316;52.964;7.102;2023-06-24T20:37:42;7.38;;;4.82;;
70757;SDS011;59316;52.964;7.102;2023-06-24T20:43:03;6.70;;;4.93;;
70757;SDS011;59316;52.964;7.102;2023-06-24T20:48:25;8.40;;;5.13;;
70757;SDS011;59316;52.964;7.102;2023-06-24T20:53:46;10.23;;;5.93;;
70757;SDS011;59316;52.964;7.102;2023-06-24T20:59:08;9.27;;;5.57;;
70757;SDS011;59316;52.964;7.102;2023-06-24T21:04:30;9.85;;;5.78;;
70757;SDS011;59316;52.964;7.102;2023-06-24T21:09:51;8.38;;;5.68;;
70757;SDS011;59316;52.964;7.102;2023-06-24T21:15:13;7.55;;;5.43;;
70757;SDS011;59316;52.964;7.102;2023-06-24T21:20:35;7.68;;;5.70;;
70757;SDS011;59316;52.964;7.102;2023-06-24T21:25:57;8.57;;;6.07;;
70757;SDS011;59316;52.964;7.102;2023-06-24T21:31:18;9.20;;;6.43;;
70757;SDS011;59316;52.964;7.102;2023-06-24T21:36:40;7.28;;;5.68;;
70757;SDS011;59316;52.964;7.102;2023-06-24T21:42:01;9.60;;;6.20;;
70757;SDS011;59316;52.964;7.102;2023-06-24T21:47:23;8.68;;;5.93;;
70757;SDS011;59316;52.964;7.102;2023-06-24T21:52:44;11.77;;;6.40;;
70757;SDS011;59316;52.964;7.102;2023-06-24T21:58:06;10.85;;;6.68;;
70757;SDS011;59316;52.964;7.102;2023-06-24T22:03:27;12.63;;;6.65;;
70757;SDS011;59316;52.964;7.102;2023-06-24T22:08:49;10.60;;;6.60;;
70757;SDS011;59316;52.964;7.102;2023-06-24T22:14:10;8.60;;;6.03;;
70757;SDS011;59316;52.964;7.102;2023-06-24T22:19:32;11.45;;;7.15;;
70757;SDS011;59316;52.964;7.102;2023-06-24T22:24:53;12.25;;;6.93;;
70757;SDS011;59316;52.964;7.102;2023-06-24T22:30:15;16.73;;;8.43;;
70757;SDS011;59316;52.964;7.102;2023-06-24T22:35:36;11.15;;;7.10;;
70757;SDS011;59316;52.964;7.102;2023-06-24T22:40:58;13.35;;;7.68;;
70757;SDS011;59316;52.964;7.102;2023-06-24T22:46:19;13.25;;;8.18;;
70757;SDS011;59316;52.964;7.102;2023-06-24T22:51:41;12.95;;;8.20;;
70757;SDS011;59316;52.964;7.102;2023-06-24T22:57:02;13.18;;;7.43;;
70757;SDS011;59316;52.964;7.102;2023-06-24T23:02:24;14.55;;;9.18;;
70757;SDS011;59316;52.964;7.102;2023-06-24T23:07:47;21.70;;;8.93;;
70757;SDS011;59316;52.964;7.102;2023-06-24T23:13:08;16.77;;;10.23;;
70757;SDS011;59316;52.964;7.102;2023-06-24T23:18:30;13.68;;;8.55;;
70757;SDS011;59316;52.964;7.102;2023-06-24T23:23:52;22.35;;;9.15;;
70757;SDS011;59316;52.964;7.102;2023-06-24T23:29:13;15.73;;;9.45;;
70757;SDS011;59316;52.964;7.102;2023-06-24T23:34:35;17.15;;;9.75;;
70757;SDS011;59316;52.964;7.102;2023-06-24T23:39:57;17.00;;;9.30;;
70757;SDS011;59316;52.964;7.102;2023-06-24T23:45:19;15.45;;;9.52;;
70757;SDS011;59316;52.964;7.102;2023-06-24T23:50:41;20.17;;;9.95;;
70757;SDS011;59316;52.964;7.102;2023-06-24T23:56:02;24.52;;;11.45;;
